Time;durP1;ratioP1;P1;durP2;ratioP2;P2;SDS_P1;SDS_P2;PMS_P1;PMS_P2;Temp;Humidity;BMP_temperature;BMP_pressure;BME280_temperature;BME280_humidity;BME280_pressure;Samples;Min_cycle;Max_cycle;Signal;HPM_P1;HPM_P2
2023/04/30 00:02:18;;;;;;;13.88;9.77;;;;;;;13.74;90.04;101097.66;5024617;28;20089;-49
2023/04/30 00:04:46;;;;;;;13.98;9.52;;;;;;;13.65;90.05;101091.50;5028751;28;20063;-45
2023/04/30 00:07:13;;;;;;;14.15;9.65;;;;;;;13.61;90.11;101090.56;5026372;28;20083;-45
2023/04/30 00:09:40;;;;;;;16.52;10.02;;;;;;;13.58;90.46;101094.06;5026223;28;20045;-45
2023/04/30 00:12:06;;;;;;;15.88;10.20;;;;;;;13.56;90.32;101099.19;5025902;28;20119;-45
2023/04/30 00:14:33;;;;;;;13.52;9.55;;;;;;;13.51;90.42;101093.06;5026459;28;20073;-44
2023/04/30 00:17:00;;;;;;;18.30;10.93;;;;;;;13.47;90.29;101100.53;5027072;28;20053;-48
2023/04/30 00:19:27;;;;;;;18.30;9.85;;;;;;;13.38;90.33;101098.72;5026921;28;20046;-45
2023/04/30 00:21:53;;;;;;;15.95;9.40;;;;;;;13.34;90.55;101091.44;5028805;28;20045;-50
2023/04/30 00:24:20;;;;;;;18.65;9.48;;;;;;;13.35;90.70;101104.16;5028674;28;20483;-45
2023/04/30 00:26:47;;;;;;;17.48;10.23;;;;;;;13.28;90.64;101090.88;5027452;28;20046;-48
2023/04/30 00:29:13;;;;;;;18.08;10.05;;;;;;;13.22;90.55;101094.25;5028983;28;20053;-48
2023/04/30 00:31:40;;;;;;;18.77;10.10;;;;;;;13.17;90.80;101098.13;5032002;28;20045;-49
2023/04/30 00:34:07;;;;;;;14.18;9.60;;;;;;;13.12;90.97;101092.00;5015935;28;20077;-45
2023/04/30 00:36:34;;;;;;;17.75;10.13;;;;;;;13.08;91.02;101093.88;5028519;28;20049;-44
2023/04/30 00:39:01;;;;;;;17.88;9.45;;;;;;;13.00;91.21;101092.81;5027618;28;20042;-46
2023/04/30 00:41:29;;;;;;;18.65;9.65;;;;;;;12.93;91.27;101081.50;5028512;28;20041;-44
2023/04/30 00:43:55;;;;;;;18.85;9.65;;;;;;;12.90;91.55;101093.31;5026620;28;20045;-45
2023/04/30 00:46:22;;;;;;;15.98;10.13;;;;;;;12.88;91.51;101092.06;5028345;28;20152;-46
2023/04/30 00:48:49;;;;;;;16.73;9.77;;;;;;;12.82;91.38;101083.16;5028824;28;20048;-44
2023/04/30 00:51:16;;;;;;;17.23;9.43;;;;;;;12.77;91.56;101081.44;5028867;28;20148;-44
2023/04/30 00:53:43;;;;;;;17.17;9.30;;;;;;;12.78;91.85;101090.59;5025605;28;20446;-44
2023/04/30 00:56:11;;;;;;;16.40;9.35;;;;;;;12.81;91.64;101095.44;5028825;28;20136;-45
2023/04/30 00:58:39;;;;;;;19.88;10.57;;;;;;;12.81;91.68;101093.44;5027443;28;20060;-43
2023/04/30 01:01:05;;;;;;;18.58;11.27;;;;;;;12.83;91.57;101090.34;5037556;28;20045;-51
2023/04/30 01:03:34;;;;;;;20.30;11.23;;;;;;;12.83;91.67;101088.38;5029136;28;20140;-44
2023/04/30 01:06:02;;;;;;;18.35;10.60;;;;;;;12.84;91.82;101078.03;5028518;28;20157;-44
2023/04/30 01:08:30;;;;;;;21.23;10.40;;;;;;;12.86;91.89;101074.94;5028718;28;20045;-45
2023/04/30 01:11:16;;;;;;;19.80;10.98;;;;;;;12.87;91.98;101071.00;5032347;28;20563;-43
2023/04/30 01:13:57;;;;;;;16.25;10.35;;;;;;;12.83;91.83;101082.81;5028001;28;20112;-49
2023/04/30 01:16:32;;;;;;;18.25;10.98;;;;;;;12.81;92.03;101078.78;5028511;28;20046;-45
2023/04/30 01:19:19;;;;;;;14.68;9.15;;;;;;;12.81;92.25;101076.78;5025992;28;20456;-44
2023/04/30 01:21:48;;;;;;;15.98;10.38;;;;;;;12.81;92.24;101073.22;5023468;28;20057;-45
2023/04/30 01:24:40;;;;;;;15.35;8.77;;;;;;;12.76;92.27;101068.69;5024669;28;20060;-45
2023/04/30 01:27:13;;;;;;;15.75;8.88;;;;;;;12.71;92.26;101073.69;5005486;28;20083;-44
2023/04/30 01:29:42;;;;;;;15.52;9.35;;;;;;;12.67;92.39;101065.25;5027576;28;20041;-43
2023/04/30 01:32:10;;;;;;;14.80;8.68;;;;;;;12.66;92.79;101066.41;5036104;28;20843;-48
2023/04/30 01:34:37;;;;;;;11.38;7.53;;;;;;;12.64;92.75;101067.94;5029687;28;20048;-44
2023/04/30 01:37:58;;;;;;;15.55;7.47;;;;;;;12.59;93.00;101066.22;5028907;28;20044;-44
2023/04/30 01:40:41;;;;;;;15.98;8.30;;;;;;;12.54;92.72;101063.69;4965354;28;20149;-44
2023/04/30 01:43:22;;;;;;;16.48;7.55;;;;;;;12.47;92.86;101055.09;4967564;28;20142;-43
2023/04/30 01:46:00;;;;;;;16.10;8.48;;;;;;;12.41;93.29;101048.19;5012815;28;20050;-43
2023/04/30 01:48:42;;;;;;;13.07;7.35;;;;;;;12.35;93.18;101044.03;5029385;28;20132;-44
2023/04/30 01:51:19;;;;;;;15.73;7.63;;;;;;;12.31;93.54;101054.22;5030205;28;20053;-46
2023/04/30 01:53:46;;;;;;;15.20;7.38;;;;;;;12.33;93.70;101046.38;5041540;28;20065;-52
2023/04/30 01:56:38;;;;;;;14.30;7.43;;;;;;;12.30;93.84;101035.97;5023420;28;20041;-44
2023/04/30 01:59:07;;;;;;;11.32;5.82;;;;;;;12.28;93.98;101029.94;5028622;28;20053;-44
2023/04/30 02:01:34;;;;;;;14.20;7.30;;;;;;;12.29;93.90;101039.88;5024891;28;20384;-44
2023/04/30 02:04:02;;;;;;;13.18;7.03;;;;;;;12.30;94.24;101035.97;5028691;28;20140;-45
2023/04/30 02:06:30;;;;;;;12.45;7.10;;;;;;;12.28;94.28;101027.19;5028588;28;20803;-44
2023/04/30 02:09:05;;;;;;;17.20;7.75;;;;;;;12.26;94.51;101025.91;5027028;28;20372;-46
2023/04/30 02:11:31;;;;;;;14.30;7.65;;;;;;;12.27;94.71;101033.06;5026744;28;20045;-51
2023/04/30 02:13:58;;;;;;;13.55;7.30;;;;;;;12.24;94.92;101023.47;5029862;28;20038;-46
2023/04/30 02:16:24;;;;;;;17.90;7.68;;;;;;;12.21;94.92;101022.19;5028597;28;20056;-47
2023/04/30 02:18:51;;;;;;;16.17;7.75;;;;;;;12.23;95.02;101010.75;5028723;28;20045;-44
2023/04/30 02:21:18;;;;;;;14.60;7.13;;;;;;;12.25;95.15;101015.94;5030228;28;20103;-50
2023/04/30 02:23:44;;;;;;;14.15;6.95;;;;;;;12.26;95.34;101012.81;5027952;28;20399;-45
2023/04/30 02:26:11;;;;;;;18.75;8.18;;;;;;;12.23;95.29;101007.16;5029553;28;20044;-45
2023/04/30 02:28:38;;;;;;;13.45;6.82;;;;;;;12.19;95.43;101009.81;5027049;28;20547;-43
2023/04/30 02:31:04;;;;;;;12.65;5.65;;;;;;;12.15;95.51;101011.69;5026472;28;20450;-43
2023/04/30 02:33:31;;;;;;;13.75;5.55;;;;;;;12.13;95.61;101003.69;5026898;28;20045;-44
2023/04/30 02:35:59;;;;;;;9.00;5.32;;;;;;;12.11;95.66;101016.31;5029848;28;20061;-44
2023/04/30 02:38:26;;;;;;;7.82;4.43;;;;;;;12.06;95.80;101009.03;5027814;28;20053;-44
2023/04/30 02:40:53;;;;;;;6.63;3.63;;;;;;;12.05;96.09;101001.03;5028418;28;20053;-43
2023/04/30 02:43:19;;;;;;;5.97;3.22;;;;;;;12.02;96.06;101008.09;5024659;28;20045;-44
2023/04/30 02:45:48;;;;;;;7.30;2.60;;;;;;;11.98;96.12;101003.59;5032056;28;20053;-46
2023/04/30 02:48:15;;;;;;;6.32;2.22;;;;;;;11.95;96.25;100998.75;5025444;28;20045;-46
2023/04/30 02:50:41;;;;;;;7.15;2.80;;;;;;;11.94;96.33;101000.72;5025205;28;20041;-43
2023/04/30 02:53:08;;;;;;;1.60;1.50;;;;;;;11.89;96.52;100998.19;5027690;28;20044;-45
2023/04/30 02:55:34;;;;;;;2.95;1.40;;;;;;;11.85;96.61;101000.03;5030592;28;21192;-45
2023/04/30 02:58:01;;;;;;;2.90;1.60;;;;;;;11.82;96.83;100992.41;5024733;28;20041;-45
2023/04/30 03:00:37;;;;;;;4.05;1.63;;;;;;;11.78;97.03;100996.22;5110502;23;20059;-45
2023/04/30 03:03:04;;;;;;;4.30;1.90;;;;;;;11.78;96.90;100985.13;4968383;28;20124;-44
2023/04/30 03:05:30;;;;;;;2.88;2.10;;;;;;;11.77;96.96;100986.28;4989478;28;20053;-44
2023/04/30 03:07:57;;;;;;;4.55;2.00;;;;;;;11.77;97.18;100989.06;4988516;28;20480;-43
2023/04/30 03:10:24;;;;;;;6.40;3.20;;;;;;;11.77;97.19;100978.78;4989970;28;20105;-44
2023/04/30 03:12:52;;;;;;;8.32;3.58;;;;;;;11.77;97.05;100983.50;4990410;28;20054;-47
2023/04/30 03:15:19;;;;;;;5.00;2.97;;;;;;;11.79;97.43;100982.00;4982802;28;20053;-44
2023/04/30 03:17:45;;;;;;;6.10;2.97;;;;;;;11.79;97.51;100979.22;4972882;28;20058;-43
2023/04/30 03:20:13;;;;;;;4.32;2.70;;;;;;;11.80;97.31;100985.59;4971672;28;20105;-43
2023/04/30 03:22:40;;;;;;;5.30;3.42;;;;;;;11.78;97.71;100985.91;4969483;28;20039;-48
2023/04/30 03:25:08;;;;;;;5.43;2.97;;;;;;;11.77;97.91;100978.78;4989805;28;20144;-44
2023/04/30 03:27:34;;;;;;;8.27;3.20;;;;;;;11.79;97.85;100982.00;4988326;28;20046;-45
2023/04/30 03:30:01;;;;;;;8.20;3.15;;;;;;;11.80;98.01;100988.38;4987936;28;20053;-44
2023/04/30 03:32:27;;;;;;;5.00;3.08;;;;;;;11.79;98.11;100978.41;4990403;28;20048;-45
2023/04/30 03:34:54;;;;;;;4.85;3.63;;;;;;;11.81;98.15;100978.91;4988430;28;20633;-43
2023/04/30 03:37:21;;;;;;;7.18;3.70;;;;;;;11.79;98.30;100981.19;4988491;28;20393;-43
2023/04/30 03:39:47;;;;;;;4.70;3.10;;;;;;;11.80;98.63;100977.28;4990108;28;20093;-52
2023/04/30 03:42:14;;;;;;;6.63;3.42;;;;;;;11.82;98.46;100969.41;4988250;28;20046;-44
2023/04/30 03:44:41;;;;;;;6.30;3.17;;;;;;;11.85;98.74;100974.25;4989592;28;20053;-43
2023/04/30 03:47:08;;;;;;;4.95;3.33;;;;;;;11.85;98.55;100975.06;4981290;28;20054;-43
2023/04/30 03:49:35;;;;;;;5.30;3.05;;;;;;;11.85;98.89;100974.25;4986774;28;20496;-45
2023/04/30 03:52:02;;;;;;;5.47;3.00;;;;;;;11.86;98.81;100973.13;4987326;28;20065;-46
2023/04/30 03:54:29;;;;;;;4.50;3.45;;;;;;;11.90;99.06;100968.47;4987574;28;20082;-45
2023/04/30 03:56:56;;;;;;;4.63;3.38;;;;;;;11.90;99.12;100971.25;4988795;28;20049;-45
2023/04/30 03:59:23;;;;;;;5.50;3.40;;;;;;;11.92;99.38;100957.81;4988330;28;20150;-49
2023/04/30 04:01:50;;;;;;;6.50;3.65;;;;;;;11.93;99.48;100954.72;4987213;28;20057;-44
2023/04/30 04:04:17;;;;;;;4.57;2.88;;;;;;;11.94;99.53;100961.88;4985162;28;20050;-45
2023/04/30 04:06:44;;;;;;;3.88;3.22;;;;;;;11.98;99.50;100962.81;4989430;28;20085;-43
2023/04/30 04:09:10;;;;;;;3.92;3.05;;;;;;;11.99;99.59;100958.06;4988378;28;20500;-48
2023/04/30 04:11:37;;;;;;;5.93;3.13;;;;;;;11.98;99.55;100960.03;4986984;28;20050;-44
2023/04/30 04:14:04;;;;;;;4.60;2.92;;;;;;;11.99;99.57;100960.84;4983495;28;20500;-44
2023/04/30 04:16:31;;;;;;;4.68;3.08;;;;;;;12.00;99.62;100959.66;4986241;28;20058;-43
2023/04/30 04:18:57;;;;;;;2.88;2.45;;;;;;;11.99;99.76;100964.41;4970519;28;20141;-44
2023/04/30 04:21:24;;;;;;;6.32;2.50;;;;;;;12.01;99.68;100964.06;4976622;28;20415;-44
2023/04/30 04:23:51;;;;;;;4.03;3.15;;;;;;;12.01;99.91;100964.06;4989551;28;20051;-44
2023/04/30 04:26:20;;;;;;;5.68;2.67;;;;;;;12.03;99.95;100959.78;4978030;28;20069;-43
2023/04/30 04:28:47;;;;;;;5.07;2.58;;;;;;;12.05;99.94;100962.19;4986273;28;20043;-44
2023/04/30 04:31:13;;;;;;;2.72;2.30;;;;;;;12.07;99.81;100959.91;4969730;28;20065;-43
2023/04/30 04:33:40;;;;;;;2.65;2.40;;;;;;;12.09;99.85;100963.13;4982057;28;20082;-46
2023/04/30 04:36:07;;;;;;;3.85;2.50;;;;;;;12.10;99.94;100956.41;4977992;28;20172;-43
2023/04/30 04:38:34;;;;;;;3.08;2.33;;;;;;;12.10;100.00;100950.84;4988247;28;20057;-45
2023/04/30 04:41:00;;;;;;;2.33;1.90;;;;;;;12.11;100.00;100944.97;4989047;28;20431;-46
2023/04/30 04:43:27;;;;;;;2.80;2.28;;;;;;;12.13;100.00;100950.16;4988031;28;20485;-43
2023/04/30 04:45:54;;;;;;;4.60;1.92;;;;;;;12.14;100.00;100949.00;4985339;28;20133;-43
2023/04/30 04:48:20;;;;;;;2.92;2.13;;;;;;;12.16;100.00;100949.47;4986813;28;20129;-43
2023/04/30 04:50:47;;;;;;;2.30;1.98;;;;;;;12.16;100.00;100949.47;4987956;28;20081;-44
2023/04/30 04:53:14;;;;;;;52.42;5.40;;;;;;;12.16;100.00;100935.59;4986854;28;20050;-44
2023/04/30 04:55:40;;;;;;;2.45;1.63;;;;;;;12.19;100.00;100945.97;4986471;28;20418;-44
2023/04/30 04:58:07;;;;;;;2.17;1.88;;;;;;;12.17;100.00;100948.31;4985422;28;20126;-44
2023/04/30 05:00:34;;;;;;;4.43;2.20;;;;;;;12.21;100.00;100943.66;4987679;28;20057;-51
2023/04/30 05:03:01;;;;;;;2.85;1.88;;;;;;;12.23;100.00;100946.91;4989853;28;20467;-44
2023/04/30 05:05:27;;;;;;;3.55;2.00;;;;;;;12.24;100.00;100934.63;4989635;28;20363;-43
2023/04/30 05:07:54;;;;;;;2.10;1.90;;;;;;;12.23;100.00;100936.59;4989710;28;20051;-45
2023/04/30 05:10:21;;;;;;;3.35;2.45;;;;;;;12.23;100.00;100935.81;4995633;28;20136;-46
2023/04/30 05:12:48;;;;;;;3.30;2.28;;;;;;;12.25;100.00;100938.22;4993100;28;20034;-52
2023/04/30 05:15:14;;;;;;;2.28;2.08;;;;;;;12.23;100.00;100946.91;4990548;28;20054;-43
2023/04/30 05:17:41;;;;;;;2.33;2.13;;;;;;;12.27;100.00;100942.25;4991179;28;20057;-48
2023/04/30 05:20:08;;;;;;;3.60;2.00;;;;;;;12.30;100.00;100940.75;4982982;28;20109;-43
2023/04/30 05:22:35;;;;;;;4.93;2.72;;;;;;;12.30;100.00;100936.00;4965526;28;20061;-45
2023/04/30 05:25:02;;;;;;;5.22;3.95;;;;;;;12.31;100.00;100942.38;4976780;28;20408;-45
2023/04/30 05:27:29;;;;;;;3.13;2.33;;;;;;;12.31;100.00;100945.16;4990505;28;20061;-43
2023/04/30 05:29:56;;;;;;;3.10;2.80;;;;;;;12.30;100.00;100941.56;4989852;28;20047;-43
2023/04/30 05:32:22;;;;;;;4.15;3.30;;;;;;;12.35;100.00;100938.53;4991381;28;20046;-45
2023/04/30 05:34:49;;;;;;;3.30;2.88;;;;;;;12.35;100.00;100941.31;4974352;28;20384;-46
2023/04/30 05:37:18;;;;;;;3.92;3.63;;;;;;;12.37;100.00;100944.53;4991987;28;20031;-45
2023/04/30 05:39:45;;;;;;;4.60;3.83;;;;;;;12.37;100.00;100935.41;4990078;28;20045;-45
2023/04/30 05:42:12;;;;;;;4.25;3.45;;;;;;;12.36;100.00;100934.59;4991710;28;20047;-43
2023/04/30 05:44:39;;;;;;;3.38;3.08;;;;;;;12.38;100.00;100940.63;4974137;28;20511;-46
2023/04/30 05:47:06;;;;;;;4.43;3.88;;;;;;;12.42;100.00;100938.72;4990282;28;20551;-44
2023/04/30 05:49:33;;;;;;;5.22;3.25;;;;;;;12.43;100.00;100939.53;4973061;28;20054;-44
2023/04/30 05:52:02;;;;;;;4.50;3.05;;;;;;;12.43;100.00;100940.34;4990493;28;20058;-45
2023/04/30 05:54:30;;;;;;;3.22;2.90;;;;;;;12.47;100.00;100934.91;4990921;28;20574;-44
2023/04/30 05:56:57;;;;;;;3.42;2.63;;;;;;;12.50;100.00;100935.00;4991885;28;20050;-44
2023/04/30 05:59:24;;;;;;;4.47;3.45;;;;;;;12.51;100.00;100936.63;4988951;28;20113;-47
2023/04/30 06:01:54;;;;;;;3.78;3.33;;;;;;;12.55;100.00;100939.50;4991417;28;20129;-44
2023/04/30 06:04:20;;;;;;;4.18;3.17;;;;;;;12.56;100.00;100939.16;4992265;28;20043;-43
2023/04/30 06:06:47;;;;;;;3.80;2.72;;;;;;;12.56;100.00;100939.16;4971814;28;20050;-44
2023/04/30 06:09:14;;;;;;;1.73;1.30;;;;;;;12.61;100.00;100941.66;4991975;28;20050;-44
2023/04/30 06:11:41;;;;;;;1.20;1.10;;;;;;;12.65;100.00;100942.59;4989547;28;20038;-43
2023/04/30 06:14:09;;;;;;;1.85;1.50;;;;;;;12.67;100.00;100943.03;4987377;28;20141;-45
2023/04/30 06:16:36;;;;;;;1.88;0.80;;;;;;;12.67;100.00;100951.38;4990524;28;20046;-44
2023/04/30 06:19:03;;;;;;;0.82;0.75;;;;;;;12.69;100.00;100942.66;4990100;28;20045;-48
2023/04/30 06:21:30;;;;;;;1.45;0.75;;;;;;;12.70;100.00;100952.63;4983693;28;20405;-44
2023/04/30 06:23:57;;;;;;;1.02;1.00;;;;;;;12.71;100.00;100941.16;4980142;28;20138;-44
2023/04/30 06:26:24;;;;;;;1.30;1.20;;;;;;;12.75;100.00;100944.84;4987594;28;20070;-44
2023/04/30 06:28:50;;;;;;;2.00;1.33;;;;;;;12.78;99.81;100951.66;4991801;28;20046;-44
2023/04/30 06:31:17;;;;;;;1.40;1.15;;;;;;;12.79;99.72;100945.75;4991433;28;20050;-46
2023/04/30 06:33:44;;;;;;;2.83;1.23;;;;;;;12.84;99.58;100944.66;4989281;28;20077;-43
2023/04/30 06:36:11;;;;;;;2.15;1.13;;;;;;;12.86;99.39;100958.22;4991042;28;20073;-48
2023/04/30 06:38:37;;;;;;;2.25;1.65;;;;;;;12.88;99.47;100961.44;4991187;28;20044;-43
2023/04/30 06:41:04;;;;;;;1.48;1.27;;;;;;;12.88;99.47;100955.88;4973889;28;20399;-44
2023/04/30 06:43:31;;;;;;;1.45;1.10;;;;;;;12.89;99.46;100951.97;4991636;28;20042;-43
2023/04/30 06:45:57;;;;;;;1.60;1.50;;;;;;;12.91;99.23;100957.97;4985641;28;20496;-44
2023/04/30 06:48:24;;;;;;;2.85;1.55;;;;;;;12.93;99.39;100964.78;4986149;28;20066;-46
2023/04/30 06:50:58;;;;;;;2.60;1.83;;;;;;;12.99;99.30;100968.09;4988963;28;20058;-49
2023/04/30 06:53:25;;;;;;;1.48;1.38;;;;;;;13.04;99.31;100960.31;4991340;28;20053;-45
2023/04/30 06:55:52;;;;;;;1.83;1.67;;;;;;;13.08;99.28;100963.25;4991146;28;20057;-47
2023/04/30 06:58:18;;;;;;;1.60;1.30;;;;;;;13.11;99.17;100959.72;4991149;28;20080;-44
2023/04/30 07:00:45;;;;;;;2.63;1.58;;;;;;;13.15;99.23;100955.88;4990421;28;20054;-45
2023/04/30 07:03:12;;;;;;;1.50;1.40;;;;;;;13.23;99.32;100956.88;4972977;28;20054;-47
2023/04/30 07:05:40;;;;;;;2.03;1.83;;;;;;;13.28;99.16;100957.41;4973537;28;20141;-45
2023/04/30 07:08:07;;;;;;;2.55;1.50;;;;;;;13.31;99.02;100964.25;4990982;28;20050;-46
2023/04/30 07:10:33;;;;;;;2.92;1.65;;;;;;;13.39;99.07;100954.91;4990615;28;20128;-44
2023/04/30 07:13:00;;;;;;;2.28;1.83;;;;;;;13.46;99.14;100955.06;4990693;28;20051;-46
2023/04/30 07:15:26;;;;;;;2.65;1.38;;;;;;;13.54;99.01;100962.44;4990344;28;20050;-44
2023/04/30 07:17:54;;;;;;;1.92;1.55;;;;;;;13.57;98.96;100958.13;4990895;28;20432;-45
2023/04/30 07:20:20;;;;;;;2.95;1.40;;;;;;;13.56;98.67;100960.09;4990377;28;20054;-44
2023/04/30 07:22:47;;;;;;;2.63;1.83;;;;;;;13.55;98.49;100958.50;4989430;28;20484;-45
2023/04/30 07:25:14;;;;;;;2.50;1.45;;;;;;;13.63;98.88;100970.59;4988589;28;20046;-45
2023/04/30 07:27:41;;;;;;;3.03;1.80;;;;;;;13.70;98.73;100960.44;4989284;28;20038;-45
2023/04/30 07:30:09;;;;;;;1.92;1.83;;;;;;;13.74;98.18;100955.75;4977536;28;20061;-47
2023/04/30 07:32:37;;;;;;;1.92;1.48;;;;;;;13.78;98.23;100965.00;4983126;28;20161;-52
2023/04/30 07:35:05;;;;;;;2.88;1.80;;;;;;;13.84;98.21;100966.38;4985060;28;20065;-46
2023/04/30 07:37:32;;;;;;;1.30;1.20;;;;;;;13.95;98.01;100972.97;4972147;28;20070;-45
2023/04/30 07:40:02;;;;;;;2.92;1.30;;;;;;;14.02;97.56;100983.47;4972469;28;20519;-45
2023/04/30 07:42:29;;;;;;;1.20;1.10;;;;;;;14.10;97.52;100970.50;4973657;28;20047;-47
2023/04/30 07:44:56;;;;;;;1.90;1.63;;;;;;;14.09;97.53;100966.91;4975983;28;20054;-46
2023/04/30 07:47:24;;;;;;;2.83;1.00;;;;;;;14.10;97.32;100984.44;4987357;28;20560;-44
2023/04/30 07:49:51;;;;;;;2.67;1.42;;;;;;;14.20;97.64;100983.84;4990102;28;20668;-50
2023/04/30 07:52:17;;;;;;;3.42;1.55;;;;;;;14.36;97.65;100977.09;4989584;28;20081;-48
2023/04/30 07:54:44;;;;;;;1.50;1.40;;;;;;;14.47;97.07;100982.91;4989232;28;20457;-45
2023/04/30 07:57:11;;;;;;;1.25;1.15;;;;;;;14.50;96.87;100988.56;4990227;28;20046;-47
2023/04/30 07:59:38;;;;;;;1.60;1.50;;;;;;;14.51;96.59;100983.78;4983570;28;20359;-44
2023/04/30 08:02:05;;;;;;;1.65;1.20;;;;;;;14.48;96.34;100984.53;4986903;28;20073;-50
2023/04/30 08:04:32;;;;;;;4.80;1.20;;;;;;;14.48;96.22;100984.53;4989720;28;20052;-47
2023/04/30 08:07:00;;;;;;;1.70;1.23;;;;;;;14.55;95.93;100984.69;4978751;28;20496;-47
2023/04/30 08:09:27;;;;;;;3.40;1.55;;;;;;;14.61;95.45;100988.78;4966631;28;20046;-46
2023/04/30 08:11:54;;;;;;;1.40;1.20;;;;;;;14.67;95.07;100987.31;4970398;28;20789;-50
2023/04/30 08:14:20;;;;;;;3.40;1.80;;;;;;;14.73;94.87;100980.28;4989772;28;20050;-47
2023/04/30 08:16:47;;;;;;;1.85;1.00;;;;;;;14.80;94.30;100985.97;4966512;28;20050;-46
2023/04/30 08:19:14;;;;;;;1.35;1.25;;;;;;;14.81;93.88;100993.19;4985379;28;20053;-48
2023/04/30 08:21:41;;;;;;;3.60;1.25;;;;;;;14.75;93.46;100989.06;4986929;28;20056;-47
2023/04/30 08:24:07;;;;;;;0.95;0.95;;;;;;;14.78;93.84;100999.47;4989152;28;20082;-44
2023/04/30 08:26:34;;;;;;;1.70;1.50;;;;;;;14.85;93.57;100994.03;4984677;28;20069;-46
2023/04/30 08:29:01;;;;;;;1.63;1.20;;;;;;;14.94;93.16;100983.47;4978629;28;20082;-44
2023/04/30 08:31:28;;;;;;;1.30;1.20;;;;;;;15.09;93.44;100988.13;4983289;28;20054;-51
2023/04/30 08:33:54;;;;;;;2.58;1.40;;;;;;;15.30;92.93;100986.94;4985768;28;20065;-47
2023/04/30 08:36:22;;;;;;;3.72;1.48;;;;;;;15.46;92.26;100998.81;4980420;28;20054;-45
2023/04/30 08:38:49;;;;;;;1.85;1.27;;;;;;;15.63;92.81;100995.50;4973915;28;20379;-45
2023/04/30 08:41:16;;;;;;;1.35;1.08;;;;;;;16.11;91.64;100993.88;4966900;28;20041;-45
2023/04/30 08:43:44;;;;;;;1.35;1.10;;;;;;;16.66;91.41;100993.09;4967573;28;20054;-45
2023/04/30 08:46:15;;;;;;;1.20;0.70;;;;;;;17.54;89.29;101004.47;4977211;28;20073;-47
2023/04/30 08:48:43;;;;;;;2.08;0.65;;;;;;;18.39;88.17;100994.69;4980647;28;20044;-47
2023/04/30 08:51:10;;;;;;;4.43;1.27;;;;;;;19.51;85.84;101003.97;4977626;28;20046;-46
2023/04/30 08:53:37;;;;;;;1.77;0.80;;;;;;;19.74;83.26;101002.38;4985630;28;20054;-46
2023/04/30 08:56:04;;;;;;;1.10;0.50;;;;;;;19.59;82.20;101002.78;4971851;28;20052;-49
2023/04/30 08:58:31;;;;;;;2.15;0.80;;;;;;;19.91;81.05;101006.34;4988917;28;20400;-46
2023/04/30 09:00:58;;;;;;;1.80;1.08;;;;;;;19.90;79.16;100999.97;4986901;28;20077;-47
2023/04/30 09:03:27;;;;;;;1.20;0.68;;;;;;;20.19;77.84;101005.53;4988852;28;20053;-47
2023/04/30 09:05:54;;;;;;;0.93;0.70;;;;;;;20.38;76.42;101002.31;4988716;28;20043;-46
2023/04/30 09:08:43;;;;;;;0.90;0.60;;;;;;;20.38;76.92;100996.69;4989090;28;20108;-42
2023/04/30 09:11:21;;;;;;;1.30;0.88;;;;;;;20.31;75.79;100996.69;4987244;28;20066;-47
2023/04/30 09:13:53;;;;;;;1.27;0.43;;;;;;;20.43;73.28;100999.09;4987565;28;20043;-44
2023/04/30 09:16:20;;;;;;;;;;;;;;;20.49;74.61;101003.09;4988910;28;20403;-48
2023/04/30 09:18:47;;;;;;;2.80;0.82;;;;;;;20.97;71.75;100998.47;4988805;28;20375;-47
2023/04/30 09:21:15;;;;;;;1.40;1.10;;;;;;;21.73;68.92;101001.25;4988787;28;20043;-44
2023/04/30 09:24:02;;;;;;;1.05;0.68;;;;;;;22.26;67.93;101009.25;4971711;28;20042;-44
2023/04/30 09:26:35;;;;;;;2.83;0.73;;;;;;;21.94;66.04;100997.47;4989181;28;20567;-45
2023/04/30 09:29:06;;;;;;;1.02;0.60;;;;;;;22.16;64.99;100998.06;4988205;28;20050;-44
2023/04/30 09:31:35;;;;;;;;;;;;;;;22.38;65.77;101003.06;4988486;28;20085;-42
2023/04/30 09:34:03;;;;;;;4.10;1.27;;;;;;;22.01;64.08;101003.03;4988514;28;19933;-43
2023/04/30 09:36:30;;;;;;;1.35;1.05;;;;;;;21.89;64.47;100995.09;4988305;28;20052;-43
2023/04/30 09:39:06;;;;;;;2.55;0.68;;;;;;;21.51;64.58;100996.97;4988576;28;20401;-44
2023/04/30 09:41:36;;;;;;;0.98;0.60;;;;;;;21.13;64.28;101001.63;4988572;28;20084;-45
2023/04/30 09:44:03;;;;;;;2.53;0.93;;;;;;;20.84;63.85;101002.94;4989190;28;20354;-44
2023/04/30 09:46:32;;;;;;;2.88;0.80;;;;;;;20.09;64.32;100995.13;4988609;28;20065;-44
2023/04/30 09:49:00;;;;;;;2.05;1.10;;;;;;;19.59;65.25;100997.94;4992248;28;20081;-46
2023/04/30 09:51:27;;;;;;;1.98;0.95;;;;;;;19.30;65.81;101004.72;4991970;28;20521;-48
2023/04/30 09:53:55;;;;;;;2.05;1.30;;;;;;;18.86;66.26;101002.16;4992206;28;20050;-45
2023/04/30 09:56:23;;;;;;;2.63;0.90;;;;;;;18.84;67.18;100998.94;4991978;28;20057;-43
2023/04/30 09:58:52;;;;;;;1.50;1.00;;;;;;;19.71;65.58;101008.78;4992109;28;20081;-45
2023/04/30 10:01:25;;;;;;;2.03;1.13;;;;;;;20.37;64.22;101006.34;4988316;28;20046;-46
2023/04/30 10:03:52;;;;;;;1.30;0.65;;;;;;;20.31;63.08;101008.75;4983966;28;20043;-49
2023/04/30 10:06:20;;;;;;;1.67;0.57;;;;;;;19.80;64.19;101011.19;4991793;28;20042;-44
2023/04/30 10:08:52;;;;;;;4.30;1.02;;;;;;;19.68;64.63;101008.78;4991927;28;20104;-46
2023/04/30 10:11:20;;;;;;;1.20;0.60;;;;;;;19.33;63.97;101009.50;4989218;28;20149;-49
2023/04/30 10:14:16;;;;;;;2.45;0.63;;;;;;;18.91;66.11;101009.38;4982455;28;20057;-48
2023/04/30 10:16:53;;;;;;;1.00;0.73;;;;;;;19.62;64.35;101016.00;4979605;28;20050;-44
2023/04/30 10:19:32;;;;;;;1.88;0.73;;;;;;;20.14;62.99;101008.75;4991860;28;20104;-43
2023/04/30 10:22:00;;;;;;;2.10;1.00;;;;;;;20.07;62.58;101003.94;4990510;28;20050;-47
2023/04/30 10:24:28;;;;;;;3.28;1.65;;;;;;;19.72;62.21;101007.59;4983257;28;20038;-44
2023/04/30 10:26:57;;;;;;;2.53;1.00;;;;;;;19.12;63.39;100992.59;4991730;28;20365;-44
2023/04/30 10:29:24;;;;;;;4.40;1.35;;;;;;;18.53;64.34;101011.63;4991326;28;20058;-45
2023/04/30 10:31:51;;;;;;;2.55;1.05;;;;;;;18.09;65.34;100994.09;4995831;28;20060;-46
2023/04/30 10:34:54;;;;;;;2.13;0.70;;;;;;;17.83;66.36;100991.50;4989972;28;20484;-45
2023/04/30 10:37:39;;;;;;;0.98;0.47;;;;;;;17.71;67.04;100997.44;4978781;28;20044;-45
2023/04/30 10:40:08;;;;;;;1.50;0.80;;;;;;;17.92;67.35;101001.22;4990189;28;20061;-45
2023/04/30 10:42:35;;;;;;;1.63;0.63;;;;;;;18.61;66.15;100999.22;4991147;28;20104;-47
2023/04/30 10:45:02;;;;;;;1.95;1.08;;;;;;;19.47;63.82;100995.53;4990020;28;20121;-47
2023/04/30 10:47:30;;;;;;;3.42;0.90;;;;;;;19.92;63.23;100991.91;4991191;28;20476;-43
2023/04/30 10:50:04;;;;;;;5.65;1.45;;;;;;;20.23;62.58;100993.06;4987606;28;20093;-45
2023/04/30 10:52:30;;;;;;;1.83;1.00;;;;;;;20.54;62.67;100989.41;4986273;28;20042;-48
2023/04/30 10:54:57;;;;;;;2.83;1.20;;;;;;;20.76;62.84;100990.13;4984542;28;20050;-43
2023/04/30 10:57:28;;;;;;;2.72;1.00;;;;;;;20.80;63.20;100985.28;4986137;28;20501;-48
2023/04/30 11:00:08;;;;;;;3.97;1.58;;;;;;;20.67;63.39;100978.53;4984801;28;20112;-44
2023/04/30 11:02:43;;;;;;;5.03;0.95;;;;;;;20.54;63.64;100980.19;4989272;28;20053;-43
2023/04/30 11:05:12;;;;;;;1.30;0.90;;;;;;;20.21;63.31;100981.44;4993841;28;20046;-46
2023/04/30 11:08:10;;;;;;;3.65;0.88;;;;;;;19.97;64.59;100969.03;4987570;28;20057;-43
2023/04/30 11:10:36;;;;;;;1.83;0.90;;;;;;;20.00;64.23;100970.22;4989013;28;20086;-48
2023/04/30 11:13:05;;;;;;;3.47;1.60;;;;;;;20.05;64.08;100967.81;4988876;28;20050;-45
2023/04/30 11:15:38;;;;;;;2.97;1.20;;;;;;;20.23;64.01;100958.53;4987276;28;20042;-45
2023/04/30 11:18:07;;;;;;;2.50;1.00;;;;;;;20.39;63.96;100964.53;4983757;28;20121;-43
2023/04/30 11:20:40;;;;;;;5.90;1.10;;;;;;;20.40;63.94;100960.53;4966770;28;20046;-49
2023/04/30 11:23:12;;;;;;;2.83;1.58;;;;;;;20.32;64.35;100958.94;4983736;28;20050;-44
2023/04/30 11:25:54;;;;;;;4.45;1.20;;;;;;;20.12;64.22;100966.97;4979624;28;20047;-41
2023/04/30 11:28:24;;;;;;;4.57;1.42;;;;;;;19.90;63.96;100954.19;4987391;28;20030;-45
2023/04/30 11:30:55;;;;;;;4.85;1.30;;;;;;;19.79;63.98;100954.19;4984652;28;20050;-48